Time;durP1;ratioP1;P1;durP2;ratioP2;P2;SDS_P1;SDS_P2;PMS_P1;PMS_P2;Temp;Humidity;BMP_temperature;BMP_pressure;BME280_temperature;BME280_humidity;BME280_pressure;Samples;Min_cycle;Max_cycle;Signal;HPM_P1;HPM_P2
2021/04/09 00:00:41;;;;;;;2.45;1.60;;;20.60;38.70;;;;;;5091030;28;20040;-50
2021/04/09 00:03:08;;;;;;;3.05;1.40;;;20.60;38.70;;;;;;5091484;28;20032;-47
2021/04/09 00:05:34;;;;;;;3.08;1.48;;;20.60;38.70;;;;;;5093486;28;20131;-49
2021/04/09 00:08:01;;;;;;;3.70;1.60;;;20.60;38.70;;;;;;5095115;28;20111;-53
2021/04/09 00:10:28;;;;;;;2.88;1.38;;;20.60;38.70;;;;;;5094202;28;20040;-49
2021/04/09 00:12:55;;;;;;;3.17;1.25;;;20.60;38.70;;;;;;5095286;28;20043;-53
2021/04/09 00:15:22;;;;;;;2.42;1.60;;;20.60;38.70;;;;;;5093900;28;20384;-49
2021/04/09 00:17:48;;;;;;;3.80;1.52;;;20.60;38.70;;;;;;5094274;28;20100;-48
2021/04/09 00:20:20;;;;;;;1.83;1.40;;;20.60;38.70;;;;;;5094481;28;20028;-54
2021/04/09 00:22:46;;;;;;;2.92;1.60;;;20.60;38.70;;;;;;5094494;28;20613;-47
2021/04/09 00:25:14;;;;;;;3.72;1.77;;;20.60;38.70;;;;;;5094467;28;20053;-54
2021/04/09 00:27:40;;;;;;;1.80;1.20;;;20.60;38.70;;;;;;5094538;28;20024;-52
2021/04/09 00:30:08;;;;;;;2.72;1.58;;;20.60;38.70;;;;;;5093958;28;20077;-52
2021/04/09 00:32:33;;;;;;;2.20;1.35;;;20.60;38.60;;;;;;5093563;28;20024;-53
2021/04/09 00:34:59;;;;;;;2.22;1.40;;;20.60;38.60;;;;;;5095023;28;20031;-53
2021/04/09 00:37:25;;;;;;;2.70;1.65;;;20.60;38.60;;;;;;5093206;28;20119;-53
2021/04/09 00:39:50;;;;;;;2.25;1.40;;;20.60;38.60;;;;;;5094457;28;20468;-51
2021/04/09 00:42:20;;;;;;;2.92;1.90;;;20.60;38.60;;;;;;5093380;28;20384;-53
2021/04/09 00:44:46;;;;;;;3.08;1.40;;;20.60;38.60;;;;;;5094450;28;20453;-51
2021/04/09 00:47:13;;;;;;;2.33;1.85;;;20.60;38.60;;;;;;5093125;28;20455;-51
2021/04/09 00:49:39;;;;;;;1.80;1.50;;;20.50;38.50;;;;;;5093708;28;20115;-49
2021/04/09 00:52:06;;;;;;;1.85;1.33;;;20.50;38.60;;;;;;5092902;28;20846;-44
2021/04/09 00:54:33;;;;;;;2.30;1.50;;;20.50;38.50;;;;;;5092949;28;20051;-50
2021/04/09 00:57:01;;;;;;;2.97;1.42;;;20.60;38.60;;;;;;5094083;28;20028;-53
2021/04/09 00:59:28;;;;;;;2.50;1.65;;;20.50;38.60;;;;;;5091911;28;20060;-48
2021/04/09 01:01:54;;;;;;;3.10;2.00;;;20.60;38.50;;;;;;5093717;28;20103;-50
2021/04/09 01:04:20;;;;;;;3.58;1.98;;;20.50;38.50;;;;;;5093317;28;20042;-49
2021/04/09 01:06:46;;;;;;;3.17;1.35;;;20.50;38.50;;;;;;5094054;28;20020;-50
2021/04/09 01:09:12;;;;;;;2.50;1.40;;;20.60;38.50;;;;;;5093764;28;20052;-49
2021/04/09 01:11:38;;;;;;;4.07;1.70;;;20.50;38.50;;;;;;5092768;28;20059;-52
2021/04/09 01:14:03;;;;;;;2.80;1.50;;;20.50;38.50;;;;;;5093794;28;20069;-49
2021/04/09 01:16:57;;;;;;;2.85;1.50;;;20.50;38.40;;;;;;5091497;28;20081;-46
2021/04/09 01:19:50;;;;;;;2.17;1.55;;;20.50;38.40;;;;;;5078053;28;20079;-52
2021/04/09 01:22:17;;;;;;;1.80;1.20;;;20.60;38.40;;;;;;5093249;28;20119;-51
2021/04/09 01:25:09;;;;;;;2.40;1.70;;;20.50;38.30;;;;;;5093379;28;20032;-47
2021/04/09 01:28:04;;;;;;;3.13;1.63;;;20.60;38.40;;;;;;5093114;28;20020;-47
2021/04/09 01:30:52;;;;;;;2.88;1.73;;;20.50;38.30;;;;;;5092836;28;20028;-53
2021/04/09 01:33:31;;;;;;;2.83;1.67;;;20.50;38.30;;;;;;5092976;28;20028;-47
2021/04/09 01:36:06;;;;;;;5.57;1.58;;;20.50;38.30;;;;;;5093557;28;20043;-51
2021/04/09 01:38:36;;;;;;;3.65;1.50;;;20.50;38.30;;;;;;5092079;28;20539;-48
2021/04/09 01:41:05;;;;;;;2.10;1.50;;;20.50;38.30;;;;;;5093016;28;20084;-53
2021/04/09 01:43:32;;;;;;;4.00;1.73;;;20.50;38.30;;;;;;5092505;28;20115;-50
2021/04/09 01:46:00;;;;;;;2.72;1.45;;;20.50;38.20;;;;;;5093166;28;20051;-52
2021/04/09 01:48:27;;;;;;;2.03;1.42;;;20.50;38.20;;;;;;5092250;28;20032;-54
2021/04/09 01:50:54;;;;;;;3.30;1.70;;;20.50;38.20;;;;;;5092880;28;20035;-51
2021/04/09 01:53:24;;;;;;;2.83;1.35;;;20.50;38.20;;;;;;5092406;28;20024;-51
2021/04/09 01:55:52;;;;;;;5.22;1.95;;;20.50;38.20;;;;;;5092624;28;20125;-51
2021/04/09 01:58:19;;;;;;;2.35;1.52;;;20.50;38.10;;;;;;5091901;28;20092;-52
2021/04/09 02:00:45;;;;;;;2.65;2.03;;;20.60;38.20;;;;;;5092571;28;20082;-49
2021/04/09 02:03:12;;;;;;;2.97;1.80;;;20.50;38.20;;;;;;5093029;28;20063;-52
2021/04/09 02:05:39;;;;;;;3.30;1.50;;;20.60;38.10;;;;;;5092221;28;20032;-53
2021/04/09 02:08:08;;;;;;;3.58;1.70;;;20.60;38.20;;;;;;5092820;28;20457;-51
2021/04/09 02:10:34;;;;;;;3.10;1.40;;;20.60;38.10;;;;;;5091725;28;20629;-50
2021/04/09 02:13:01;;;;;;;4.18;1.40;;;20.50;38.10;;;;;;5092108;28;20036;-51
2021/04/09 02:15:27;;;;;;;2.42;1.45;;;20.60;38.10;;;;;;5091681;28;20028;-50
2021/04/09 02:17:53;;;;;;;3.15;1.60;;;20.60;38.10;;;;;;5092585;28;20024;-47
2021/04/09 02:20:21;;;;;;;2.90;1.60;;;20.60;38.10;;;;;;5090537;28;20044;-54
2021/04/09 02:22:48;;;;;;;6.82;1.50;;;20.60;38.10;;;;;;5092486;28;20024;-52
2021/04/09 02:25:17;;;;;;;2.28;1.42;;;20.60;38.00;;;;;;5092476;28;20457;-49
2021/04/09 02:27:44;;;;;;;2.67;1.70;;;20.60;38.00;;;;;;5091608;28;20050;-51
2021/04/09 02:30:11;;;;;;;2.63;1.35;;;20.60;38.10;;;;;;5092560;28;20032;-48
2021/04/09 02:32:37;;;;;;;2.75;1.40;;;20.60;38.00;;;;;;5091262;28;20043;-51
2021/04/09 02:35:05;;;;;;;2.47;1.38;;;20.60;38.10;;;;;;5091191;28;20028;-50
2021/04/09 02:37:31;;;;;;;2.67;1.55;;;20.60;38.10;;;;;;5091207;28;20074;-50
2021/04/09 02:40:00;;;;;;;3.00;1.42;;;20.60;38.00;;;;;;5091990;28;20284;-48
2021/04/09 02:42:27;;;;;;;2.70;1.50;;;20.60;38.00;;;;;;5091172;28;20055;-50
2021/04/09 02:44:54;;;;;;;2.70;1.58;;;20.60;38.00;;;;;;5090959;28;20016;-46
2021/04/09 02:47:25;;;;;;;2.38;1.50;;;20.60;38.00;;;;;;5091283;28;20103;-54
2021/04/09 02:50:06;;;;;;;3.40;1.92;;;20.60;38.00;;;;;;5091496;28;20563;-49
2021/04/09 02:52:36;;;;;;;2.85;1.80;;;20.60;38.00;;;;;;5090958;28;20028;-52
2021/04/09 02:55:09;;;;;;;2.58;1.63;;;20.60;38.00;;;;;;5082653;28;20024;-48
2021/04/09 02:57:36;;;;;;;2.90;1.70;;;20.60;38.00;;;;;;5090941;28;20030;-47
2021/04/09 03:00:05;;;;;;;3.55;2.08;;;20.60;38.00;;;;;;5091196;28;20055;-50
2021/04/09 03:02:32;;;;;;;3.80;1.67;;;20.60;38.00;;;;;;5090564;28;20028;-50
2021/04/09 03:04:58;;;;;;;2.65;1.50;;;20.60;38.00;;;;;;5091710;28;20024;-47
2021/04/09 03:07:23;;;;;;;1.88;1.45;;;20.60;37.90;;;;;;5091225;28;20024;-50
2021/04/09 03:09:49;;;;;;;3.80;2.05;;;20.60;37.90;;;;;;5091966;28;20028;-50
2021/04/09 03:12:16;;;;;;;2.75;1.60;;;20.60;37.90;;;;;;5091317;28;20488;-49
2021/04/09 03:14:43;;;;;;;2.63;1.65;;;20.60;38.00;;;;;;5090619;28;20020;-53
2021/04/09 03:17:15;;;;;;;3.25;2.00;;;20.60;38.00;;;;;;5091755;28;20111;-49
2021/04/09 03:19:41;;;;;;;5.32;1.77;;;20.60;37.90;;;;;;5082589;28;20028;-53
2021/04/09 03:22:08;;;;;;;2.92;1.40;;;20.60;38.00;;;;;;5091312;28;20036;-51
2021/04/09 03:24:35;;;;;;;3.05;1.42;;;20.60;37.90;;;;;;5090773;28;20032;-53
2021/04/09 03:27:00;;;;;;;3.00;1.70;;;20.60;37.90;;;;;;5090939;28;20116;-51
2021/04/09 03:29:26;;;;;;;3.30;2.35;;;20.60;37.90;;;;;;5090640;28;20439;-49
2021/04/09 03:31:52;;;;;;;2.65;1.65;;;20.60;37.80;;;;;;5091263;28;20098;-54
2021/04/09 03:34:18;;;;;;;2.38;1.50;;;20.60;37.80;;;;;;5091726;28;20431;-56
2021/04/09 03:36:43;;;;;;;2.70;1.65;;;20.60;37.90;;;;;;5090803;28;20046;-49
2021/04/09 03:39:09;;;;;;;3.03;1.70;;;20.60;37.80;;;;;;5092068;28;20024;-49
2021/04/09 03:41:35;;;;;;;5.22;1.58;;;20.60;38.50;;;;;;5094766;28;20040;-52
2021/04/09 03:44:00;;;;;;;2.67;1.50;;;20.60;37.80;;;;;;5094794;28;20032;-53
2021/04/09 03:46:26;;;;;;;3.42;1.60;;;20.70;37.80;;;;;;5094525;28;20020;-49
2021/04/09 03:48:51;;;;;;;1.85;1.40;;;20.70;37.80;;;;;;5095642;28;20020;-50
2021/04/09 03:51:17;;;;;;;1.83;1.63;;;20.70;37.90;;;;;;5095289;28;20043;-46
2021/04/09 03:53:43;;;;;;;2.90;1.25;;;20.70;37.80;;;;;;5094660;28;20039;-48
2021/04/09 03:56:08;;;;;;;2.20;1.40;;;20.70;37.80;;;;;;5095129;28;20153;-45
2021/04/09 03:58:34;;;;;;;1.73;1.23;;;20.70;37.80;;;;;;5093806;28;20097;-48
2021/04/09 04:00:59;;;;;;;2.33;1.50;;;20.70;37.70;;;;;;5094605;28;20060;-46
2021/04/09 04:03:25;;;;;;;2.72;1.65;;;20.70;37.70;;;;;;5094391;28;20028;-45
2021/04/09 04:05:51;;;;;;;1.98;1.40;;;20.60;37.70;;;;;;5094988;28;20377;-46
2021/04/09 04:08:16;;;;;;;2.85;1.50;;;20.70;37.80;;;;;;5093935;28;20385;-46
2021/04/09 04:10:42;;;;;;;2.50;1.63;;;20.70;37.80;;;;;;5093974;28;20028;-48
2021/04/09 04:13:08;;;;;;;4.68;1.92;;;20.70;37.80;;;;;;5094853;28;20434;-49
2021/04/09 04:15:33;;;;;;;4.85;1.73;;;20.70;37.70;;;;;;5094270;28;20027;-49
2021/04/09 04:17:59;;;;;;;2.72;1.23;;;20.70;37.80;;;;;;5094606;28;20206;-47
2021/04/09 04:20:24;;;;;;;2.42;1.58;;;20.70;37.80;;;;;;5094082;28;20031;-47
2021/04/09 04:22:50;;;;;;;3.70;2.22;;;20.70;37.70;;;;;;5094536;28;20036;-50
2021/04/09 04:25:16;;;;;;;2.70;1.70;;;20.70;37.70;;;;;;5094351;28;20388;-50
2021/04/09 04:27:41;;;;;;;2.53;2.05;;;20.70;37.60;;;;;;5094323;28;20027;-47
2021/04/09 04:30:08;;;;;;;2.50;1.48;;;20.70;37.70;;;;;;5094613;28;20075;-45
2021/04/09 04:32:34;;;;;;;2.75;1.73;;;20.70;37.60;;;;;;5093761;28;20024;-46
2021/04/09 04:34:59;;;;;;;2.10;1.40;;;20.70;38.40;;;;;;5094725;28;20024;-46
2021/04/09 04:37:25;;;;;;;3.25;1.25;;;20.70;38.00;;;;;;5093709;28;20052;-49
2021/04/09 04:39:51;;;;;;;3.55;1.40;;;20.70;37.60;;;;;;5094655;28;20059;-47
2021/04/09 04:42:17;;;;;;;3.25;1.60;;;20.70;37.60;;;;;;5094709;28;20032;-49
2021/04/09 04:44:42;;;;;;;3.05;1.40;;;20.70;37.80;;;;;;5093272;28;20590;-48
2021/04/09 04:47:08;;;;;;;3.58;1.98;;;20.70;37.80;;;;;;5094604;28;20021;-44
2021/04/09 04:49:34;;;;;;;3.00;1.27;;;20.70;37.70;;;;;;5093724;28;20111;-50
2021/04/09 04:51:59;;;;;;;3.40;1.60;;;20.70;37.70;;;;;;5093622;28;20536;-50
2021/04/09 04:54:25;;;;;;;2.42;1.60;;;20.70;37.70;;;;;;5093307;28;20121;-49
2021/04/09 04:56:51;;;;;;;2.17;1.60;;;20.70;37.70;;;;;;5094011;28;20396;-48
2021/04/09 04:59:17;;;;;;;2.58;1.55;;;20.70;37.70;;;;;;5093566;28;20377;-53
2021/04/09 05:01:42;;;;;;;3.30;1.73;;;20.70;37.60;;;;;;5093379;28;20031;-50
2021/04/09 05:04:08;;;;;;;1.83;1.42;;;20.70;37.60;;;;;;5094061;28;20028;-47
2021/04/09 05:06:34;;;;;;;2.72;1.60;;;20.70;37.70;;;;;;5083592;28;20027;-51
2021/04/09 05:09:00;;;;;;;4.05;1.50;;;20.70;37.60;;;;;;5093800;28;20032;-54
2021/04/09 05:11:25;;;;;;;2.58;1.70;;;20.70;37.60;;;;;;5092343;28;20028;-53
2021/04/09 05:13:51;;;;;;;3.65;1.48;;;20.70;37.60;;;;;;5092362;28;20032;-49
2021/04/09 05:16:17;;;;;;;3.85;1.58;;;20.70;37.60;;;;;;5093633;28;20526;-46
2021/04/09 05:18:43;;;;;;;3.45;2.03;;;20.70;37.50;;;;;;5091634;28;20031;-52
2021/04/09 05:21:08;;;;;;;3.22;1.58;;;20.70;37.70;;;;;;5093870;28;20024;-49
2021/04/09 05:23:34;;;;;;;2.83;1.50;;;20.70;37.60;;;;;;5092645;28;20153;-46
2021/04/09 05:26:00;;;;;;;2.88;1.92;;;20.70;37.60;;;;;;5093321;28;20123;-48
2021/04/09 05:28:26;;;;;;;3.92;1.58;;;20.70;37.60;;;;;;5092670;28;20039;-48
2021/04/09 05:30:52;;;;;;;2.40;1.50;;;20.70;37.60;;;;;;5092809;28;20024;-48
2021/04/09 05:33:17;;;;;;;5.55;1.95;;;20.70;37.70;;;;;;5093348;28;20029;-50
2021/04/09 05:35:46;;;;;;;4.53;1.80;;;20.70;37.80;;;;;;5092543;28;20051;-49
2021/04/09 05:38:11;;;;;;;4.05;2.00;;;20.80;38.00;;;;;;5093159;28;20016;-47
2021/04/09 05:40:37;;;;;;;5.28;2.10;;;20.80;38.40;;;;;;5092315;28;20035;-48
2021/04/09 05:43:03;;;;;;;7.88;2.13;;;20.80;38.60;;;;;;5093107;28;20073;-47
2021/04/09 05:45:29;;;;;;;4.03;1.73;;;20.80;39.00;;;;;;5091918;28;20028;-48
2021/04/09 05:48:00;;;;;;;6.40;2.40;;;20.80;39.50;;;;;;5092899;28;20020;-50
2021/04/09 05:50:26;;;;;;;7.53;2.35;;;20.80;39.50;;;;;;5092248;28;20124;-53
2021/04/09 05:52:53;;;;;;;6.78;2.30;;;20.80;39.60;;;;;;5092968;28;20484;-47
2021/04/09 05:55:19;;;;;;;6.05;2.53;;;20.80;39.80;;;;;;5092531;28;20465;-51
2021/04/09 05:57:44;;;;;;;5.60;2.40;;;20.80;40.00;;;;;;5091936;28;20020;-47
2021/04/09 06:00:12;;;;;;;11.05;2.85;;;20.90;40.50;;;;;;5092477;28;20052;-48
2021/04/09 06:02:38;;;;;;;6.07;2.55;;;20.90;40.70;;;;;;5091351;28;20043;-47
2021/04/09 06:05:04;;;;;;;3.28;2.20;;;20.90;41.00;;;;;;5091556;28;20024;-49
2021/04/09 06:07:30;;;;;;;7.70;2.85;;;20.90;41.10;;;;;;5091382;28;20380;-44
2021/04/09 06:09:56;;;;;;;6.43;2.75;;;20.90;41.80;;;;;;5092779;28;20035;-46
2021/04/09 06:12:21;;;;;;;5.50;3.03;;;21.00;41.60;;;;;;5092830;28;20076;-47
2021/04/09 06:14:47;;;;;;;5.57;2.13;;;21.00;41.60;;;;;;5091597;28;20032;-51
2021/04/09 06:17:13;;;;;;;13.25;2.83;;;21.00;41.50;;;;;;5092650;28;20035;-49
2021/04/09 06:19:38;;;;;;;6.35;2.72;;;20.90;41.50;;;;;;5083962;28;20036;-46
2021/04/09 06:22:05;;;;;;;8.32;2.50;;;20.90;41.40;;;;;;5091940;28;20032;-50
2021/04/09 06:24:30;;;;;;;5.47;2.00;;;20.90;41.40;;;;;;5091994;28;20028;-47
2021/04/09 06:26:56;;;;;;;6.57;2.30;;;20.90;41.30;;;;;;5091926;28;20035;-51
2021/04/09 06:29:22;;;;;;;7.30;2.60;;;20.90;41.30;;;;;;5092538;28;20107;-47
2021/04/09 06:31:47;;;;;;;6.68;2.17;;;20.90;41.20;;;;;;5091637;28;20808;-50
2021/04/09 06:34:13;;;;;;;7.68;2.10;;;20.90;41.10;;;;;;5094087;28;20030;-45
2021/04/09 06:36:39;;;;;;;7.10;2.65;;;20.90;41.30;;;;;;5091633;28;20072;-52
2021/04/09 06:39:05;;;;;;;7.72;2.67;;;20.90;40.80;;;;;;5091159;28;20457;-49
2021/04/09 06:41:31;;;;;;;6.68;3.38;;;20.80;39.70;;;;;;5091241;28;20065;-49
2021/04/09 06:44:00;;;;;;;14.15;4.35;;;20.80;38.10;;;;;;5092270;28;20024;-48
2021/04/09 06:46:26;;;;;;;9.35;3.85;;;20.80;37.00;;;;;;5091585;28;20039;-55
2021/04/09 06:48:51;;;;;;;8.20;3.30;;;20.80;36.00;;;;;;5091629;28;20032;-50
2021/04/09 06:51:18;;;;;;;7.57;3.72;;;20.70;35.60;;;;;;5091764;28;20032;-46
2021/04/09 06:53:48;;;;;;;8.20;3.83;;;20.70;35.00;;;;;;5090686;28;20028;-48
2021/04/09 06:56:15;;;;;;;7.18;3.50;;;20.70;34.70;;;;;;5092042;28;20377;-49
2021/04/09 06:58:45;;;;;;;6.30;3.60;;;20.70;34.20;;;;;;5091432;28;20032;-47
2021/04/09 07:01:12;;;;;;;7.07;3.80;;;20.60;34.00;;;;;;5091009;28;20055;-50
2021/04/09 07:03:38;;;;;;;7.28;3.85;;;20.60;33.70;;;;;;5089297;28;20465;-48
2021/04/09 07:06:04;;;;;;;8.13;3.85;;;20.60;33.60;;;;;;5090409;28;20114;-49
2021/04/09 07:08:30;;;;;;;6.55;3.75;;;20.60;33.20;;;;;;5086493;28;20104;-53
2021/04/09 07:10:55;;;;;;;9.63;4.20;;;20.60;33.10;;;;;;5081585;28;20488;-50
2021/04/09 07:13:21;;;;;;;7.25;3.55;;;20.60;33.20;;;;;;5090832;28;20028;-46
2021/04/09 07:15:47;;;;;;;7.32;5.05;;;20.50;33.10;;;;;;5090694;28;20028;-50
2021/04/09 07:18:16;;;;;;;9.23;3.60;;;20.50;33.60;;;;;;5090904;28;20039;-47
2021/04/09 07:20:42;;;;;;;10.02;3.85;;;20.50;32.60;;;;;;5090958;28;20119;-50
2021/04/09 07:23:10;;;;;;;7.85;3.83;;;20.50;32.60;;;;;;5091265;28;20419;-46
2021/04/09 07:25:45;;;;;;;8.13;4.50;;;20.50;32.40;;;;;;5090844;28;20381;-51
2021/04/09 07:28:21;;;;;;;19.40;5.32;;;20.50;32.50;;;;;;5091789;28;20043;-48
2021/04/09 07:30:50;;;;;;;8.68;3.92;;;20.50;32.50;;;;;;5090207;28;20039;-50
2021/04/09 07:33:23;;;;;;;7.97;4.40;;;20.50;32.20;;;;;;5091895;28;20048;-48
2021/04/09 07:35:52;;;;;;;8.57;3.80;;;20.50;32.10;;;;;;5090992;28;20093;-49
2021/04/09 07:38:29;;;;;;;10.80;4.13;;;20.50;31.60;;;;;;5083722;28;20020;-48
2021/04/09 07:41:02;;;;;;;6.57;4.13;;;20.50;31.80;;;;;;5091288;28;20028;-49
2021/04/09 07:43:32;;;;;;;7.68;3.90;;;20.50;31.60;;;;;;5091293;28;20034;-53
2021/04/09 07:46:00;;;;;;;8.73;4.50;;;20.50;31.70;;;;;;5091020;28;20036;-48
2021/04/09 07:48:39;;;;;;;8.73;5.18;;;20.50;31.80;;;;;;5091113;28;20028;-48
2021/04/09 07:51:07;;;;;;;10.05;4.32;;;20.50;31.60;;;;;;5091463;28;20032;-47
2021/04/09 07:53:32;;;;;;;6.10;3.85;;;20.50;31.40;;;;;;5090169;28;20511;-48
2021/04/09 07:56:06;;;;;;;7.40;4.53;;;20.50;31.40;;;;;;5091355;28;20056;-50
2021/04/09 07:58:32;;;;;;;10.05;5.07;;;20.50;31.40;;;;;;5086658;28;20500;-54
2021/04/09 08:00:58;;;;;;;7.20;3.60;;;20.50;31.50;;;;;;5083495;28;20108;-51
2021/04/09 08:03:37;;;;;;;6.65;3.80;;;20.50;31.70;;;;;;5090977;28;20465;-50
2021/04/09 08:06:08;;;;;;;7.78;3.85;;;20.50;32.90;;;;;;5089915;28;20085;-52
2021/04/09 08:08:35;;;;;;;11.33;3.93;;;20.60;33.50;;;;;;5085680;28;20028;-46
2021/04/09 08:11:19;;;;;;;9.02;3.95;;;20.60;34.60;;;;;;5090828;28;20270;-49
2021/04/09 08:13:59;;;;;;;6.88;3.15;;;20.70;34.80;;;;;;5090442;28;20024;-49
2021/04/09 08:16:35;;;;;;;10.65;3.85;;;20.70;34.90;;;;;;5091209;28;20034;-47
2021/04/09 08:19:08;;;;;;;9.68;3.30;;;20.80;35.60;;;;;;5091028;28;20033;-50
2021/04/09 08:21:38;;;;;;;7.55;3.63;;;20.80;35.70;;;;;;5082066;28;20047;-47
2021/04/09 08:24:05;;;;;;;8.55;3.95;;;20.80;36.10;;;;;;5090174;28;20372;-52
2021/04/09 08:26:32;;;;;;;11.68;3.53;;;20.80;35.80;;;;;;5092481;28;20077;-54
2021/04/09 08:28:58;;;;;;;7.95;3.58;;;20.80;36.00;;;;;;5087761;28;20035;-51
2021/04/09 08:31:24;;;;;;;7.18;3.13;;;20.80;35.90;;;;;;5094351;28;20036;-50
2021/04/09 08:33:50;;;;;;;5.57;3.10;;;20.80;36.00;;;;;;5094193;28;20024;-47
2021/04/09 08:36:16;;;;;;;7.25;3.20;;;20.80;35.80;;;;;;5094757;28;20106;-51
2021/04/09 08:38:44;;;;;;;7.65;2.75;;;20.80;35.60;;;;;;5094052;28;20032;-52
2021/04/09 08:41:11;;;;;;;4.88;2.50;;;20.80;35.60;;;;;;5076439;28;20039;-50
2021/04/09 08:43:40;;;;;;;7.45;2.95;;;20.80;35.40;;;;;;5093599;28;20028;-47
2021/04/09 08:46:06;;;;;;;5.30;2.45;;;20.80;35.40;;;;;;5094809;28;20028;-48
2021/04/09 08:48:33;;;;;;;6.18;2.70;;;20.80;35.40;;;;;;5093834;28;20028;-53
2021/04/09 08:51:01;;;;;;;5.45;3.42;;;20.80;35.30;;;;;;5094456;28;20032;-49
2021/04/09 08:53:28;;;;;;;6.30;2.90;;;20.80;35.20;;;;;;5094147;28;20105;-47
2021/04/09 08:55:54;;;;;;;6.15;2.65;;;20.80;35.20;;;;;;5093022;28;20034;-49
2021/04/09 08:58:20;;;;;;;6.68;2.42;;;20.80;35.20;;;;;;5094231;28;20441;-45
2021/04/09 09:00:48;;;;;;;6.03;3.20;;;20.80;35.20;;;;;;5093067;28;20135;-46
2021/04/09 09:03:28;;;;;;;6.63;2.95;;;20.80;35.30;;;;;;5093805;28;20457;-48
2021/04/09 09:06:02;;;;;;;5.50;2.30;;;20.80;35.20;;;;;;5092583;28;20645;-49
2021/04/09 09:08:48;;;;;;;4.07;2.22;;;20.80;35.00;;;;;;5093915;28;20059;-47
2021/04/09 09:11:35;;;;;;;3.92;2.28;;;20.80;35.10;;;;;;5071661;28;20102;-54
2021/04/09 09:14:00;;;;;;;2.92;1.77;;;20.80;35.00;;;;;;5093384;28;20036;-52
2021/04/09 09:16:35;;;;;;;4.40;2.30;;;20.80;34.90;;;;;;5094084;28;20024;-47
2021/04/09 09:19:02;;;;;;;5.80;2.08;;;20.80;34.90;;;;;;5093154;28;20427;-49
2021/04/09 09:21:33;;;;;;;4.40;2.10;;;20.80;34.80;;;;;;5093397;28;20089;-49
2021/04/09 09:23:58;;;;;;;4.57;2.47;;;20.80;34.90;;;;;;5093054;28;20024;-50
2021/04/09 09:26:40;;;;;;;5.32;2.22;;;20.80;34.90;;;;;;5093649;28;20031;-50
2021/04/09 09:29:26;;;;;;;3.45;1.88;;;20.80;34.80;;;;;;5093229;28;20115;-51
2021/04/09 09:32:04;;;;;;;5.65;1.80;;;20.80;34.80;;;;;;5092370;28;20093;-49
2021/04/09 09:34:38;;;;;;;4.43;2.38;;;20.80;34.70;;;;;;5093444;28;20028;-48
2021/04/09 09:37:07;;;;;;;4.93;2.33;;;20.90;34.60;;;;;;5092503;28;20043;-49
2021/04/09 09:39:52;;;;;;;4.47;2.10;;;20.80;34.80;;;;;;5092933;28;20035;-50
2021/04/09 09:42:20;;;;;;;5.32;1.95;;;20.90;34.60;;;;;;5093067;28;20035;-49
2021/04/09 09:44:48;;;;;;;4.13;2.00;;;20.90;34.80;;;;;;5092498;28;20028;-47
2021/04/09 09:47:13;;;;;;;2.75;1.77;;;20.90;34.60;;;;;;5093519;28;20020;-46
2021/04/09 09:49:59;;;;;;;5.43;1.98;;;20.90;34.60;;;;;;5092276;28;20073;-50
2021/04/09 09:52:38;;;;;;;3.72;1.80;;;20.90;34.50;;;;;;5087450;28;20443;-46
2021/04/09 09:55:16;;;;;;;3.28;2.22;;;20.90;34.60;;;;;;5093159;28;20032;-46
2021/04/09 09:57:45;;;;;;;3.63;2.03;;;20.90;34.60;;;;;;5092414;28;20032;-45
2021/04/09 10:00:12;;;;;;;3.58;1.52;;;20.90;34.40;;;;;;5092611;28;20079;-46
2021/04/09 10:02:38;;;;;;;2.50;1.40;;;20.90;34.40;;;;;;5092428;28;20080;-49
2021/04/09 10:05:05;;;;;;;2.80;1.73;;;20.90;34.50;;;;;;5092838;28;20024;-51
2021/04/09 10:07:31;;;;;;;4.25;2.00;;;20.90;34.60;;;;;;5083556;28;20384;-46
2021/04/09 10:09:56;;;;;;;4.70;2.00;;;20.90;35.30;;;;;;5091609;28;20313;-48
2021/04/09 10:12:22;;;;;;;3.17;1.55;;;21.00;35.40;;;;;;5092552;28;20077;-46
2021/04/09 10:14:49;;;;;;;4.18;1.77;;;21.00;35.80;;;;;;5090774;28;20384;-46
2021/04/09 10:17:15;;;;;;;3.40;1.45;;;21.00;36.00;;;;;;5093153;28;20028;-46
2021/04/09 10:19:57;;;;;;;4.70;1.60;;;21.00;35.80;;;;;;5091540;28;20468;-51
2021/04/09 10:22:23;;;;;;;6.15;1.88;;;21.00;36.30;;;;;;5092606;28;20115;-49
2021/04/09 10:24:49;;;;;;;3.90;1.70;;;20.90;36.40;;;;;;5094205;28;20087;-52
2021/04/09 10:27:15;;;;;;;3.53;1.40;;;21.00;36.80;;;;;;5092045;28;20141;-48
2021/04/09 10:29:40;;;;;;;3.50;1.73;;;20.90;35.70;;;;;;5091583;28;20487;-47
2021/04/09 10:32:15;;;;;;;5.20;1.80;;;20.60;32.00;;;;;;5092441;28;20093;-51
2021/04/09 10:34:41;;;;;;;3.22;1.50;;;20.60;31.70;;;;;;5091575;28;20103;-47
2021/04/09 10:37:06;;;;;;;3.20;1.55;;;20.70;34.60;;;;;;5091267;28;20561;-49
2021/04/09 10:39:33;;;;;;;2.75;1.33;;;20.80;34.80;;;;;;5092314;28;20111;-50
2021/04/09 10:42:02;;;;;;;2.58;1.50;;;20.90;35.00;;;;;;5091738;28;20052;-46
2021/04/09 10:44:30;;;;;;;2.33;1.17;;;20.90;34.90;;;;;;5092253;28;20032;-50
2021/04/09 10:47:07;;;;;;;2.83;1.60;;;20.90;35.00;;;;;;5091202;28;20112;-49
2021/04/09 10:49:35;;;;;;;9.65;1.73;;;20.90;35.00;;;;;;5091681;28;20111;-51
2021/04/09 10:52:13;;;;;;;1.90;1.25;;;20.90;34.90;;;;;;5091656;28;20052;-50
2021/04/09 10:54:44;;;;;;;2.60;1.40;;;20.90;35.00;;;;;;5084461;28;20032;-48
2021/04/09 10:57:13;;;;;;;2.97;1.43;;;20.90;35.00;;;;;;5092249;28;20031;-53
2021/04/09 10:59:43;;;;;;;3.13;1.55;;;20.90;35.00;;;;;;5082335;28;20056;-56
2021/04/09 11:02:26;;;;;;;5.22;1.90;;;20.90;35.10;;;;;;5092132;28;20036;-51
2021/04/09 11:04:59;;;;;;;3.25;1.40;;;20.90;35.50;;;;;;5090728;28;20499;-49
2021/04/09 11:07:45;;;;;;;3.92;1.10;;;20.90;35.40;;;;;;5092168;28;20070;-49
2021/04/09 11:10:28;;;;;;;3.08;1.20;;;20.90;35.80;;;;;;5091582;28;20415;-49
2021/04/09 11:12:54;;;;;;;2.55;1.20;;;21.00;36.00;;;;;;5090926;28;20028;-47
2021/04/09 11:15:20;;;;;;;1.83;1.10;;;21.00;36.00;;;;;;5090571;28;20028;-48
2021/04/09 11:17:54;;;;;;;2.75;1.23;;;21.00;36.00;;;;;;5090974;28;20024;-51
2021/04/09 11:20:23;;;;;;;2.33;1.10;;;21.10;36.50;;;;;;5091163;28;20050;-49
2021/04/09 11:23:06;;;;;;;3.03;1.40;;;21.00;36.30;;;;;;5090281;28;20403;-54
2021/04/09 11:25:36;;;;;;;1.77;1.10;;;21.00;36.30;;;;;;5091374;28;20027;-53
2021/04/09 11:28:03;;;;;;;3.63;1.40;;;21.00;36.60;;;;;;5091603;28;20028;-49
2021/04/09 11:30:39;;;;;;;3.67;1.15;;;21.10;36.70;;;;;;5091272;28;20051;-52
2021/04/09 11:33:04;;;;;;;3.67;1.30;;;21.10;36.70;;;;;;5091242;28;20035;-50
2021/04/09 11:35:35;;;;;;;5.95;1.80;;;21.10;36.80;;;;;;5091236;28;20020;-55
2021/04/09 11:38:06;;;;;;;3.43;1.53;;;21.10;36.60;;;;;;5083439;28;20035;-50
2021/04/09 11:40:43;;;;;;;2.80;1.30;;;21.10;37.10;;;;;;5091407;28;20025;-52
2021/04/09 11:43:11;;;;;;;2.90;1.50;;;21.10;37.10;;;;;;5083883;28;20032;-52
2021/04/09 11:45:48;;;;;;;2.70;1.40;;;21.10;37.40;;;;;;5090841;28;20113;-56
2021/04/09 11:48:23;;;;;;;1.70;1.00;;;21.10;36.90;;;;;;5083642;28;20024;-56
2021/04/09 11:50:49;;;;;;;1.38;0.90;;;21.10;37.10;;;;;;5085496;28;20032;-54
2021/04/09 11:53:15;;;;;;;2.83;1.10;;;21.00;37.00;;;;;;5091398;28;20112;-50
2021/04/09 11:55:44;;;;;;;2.38;1.10;;;21.00;37.50;;;;;;5090227;28;20103;-51
2021/04/09 11:58:22;;;;;;;2.35;1.00;;;21.00;37.40;;;;;;5091375;28;20110;-54
2021/04/09 12:01:01;;;;;;;2.40;1.20;;;21.00;37.70;;;;;;5092505;28;20135;-54
2021/04/09 12:03:43;;;;;;;3.63;1.10;;;21.00;37.00;;;;;;5094194;28;20028;-55
2021/04/09 12:06:14;;;;;;;2.22;1.13;;;21.10;36.80;;;;;;5095086;28;20066;-50
2021/04/09 12:08:41;;;;;;;1.40;1.10;;;21.00;35.60;;;;;;5094519;28;20032;-56
2021/04/09 12:11:08;;;;;;;3.13;1.20;;;21.00;35.30;;;;;;5094879;28;20788;-52
2021/04/09 12:13:38;;;;;;;2.67;1.10;;;21.00;35.10;;;;;;5094027;28;20058;-54
2021/04/09 12:16:05;;;;;;;3.30;1.42;;;21.00;34.50;;;;;;5094450;28;20028;-52
2021/04/09 12:18:32;;;;;;;1.92;0.93;;;21.00;34.20;;;;;;5095032;28;20024;-51
2021/04/09 12:20:58;;;;;;;3.63;1.95;;;21.00;33.60;;;;;;5093496;28;20578;-54
2021/04/09 12:23:23;;;;;;;2.20;1.30;;;21.00;33.70;;;;;;5095110;28;20060;-52
2021/04/09 12:25:49;;;;;;;5.85;1.42;;;21.00;33.90;;;;;;5092365;28;20499;-52
2021/04/09 12:28:15;;;;;;;2.95;1.10;;;21.00;33.10;;;;;;5094885;28;20024;-52
2021/04/09 12:30:40;;;;;;;2.65;1.02;;;21.00;32.80;;;;;;5094145;28;20024;-57
2021/04/09 12:33:06;;;;;;;2.20;1.05;;;20.90;32.90;;;;;;5094585;28;20322;-53
2021/04/09 12:35:32;;;;;;;1.92;1.20;;;20.90;32.40;;;;;;5093507;28;20024;-50
2021/04/09 12:37:57;;;;;;;1.98;0.88;;;20.90;32.40;;;;;;5093505;28;20555;-54
2021/04/09 12:40:23;;;;;;;3.30;0.90;;;21.00;32.30;;;;;;5092572;28;20528;-51
2021/04/09 12:42:49;;;;;;;2.88;1.40;;;20.90;31.80;;;;;;5094042;28;20039;-57
2021/04/09 12:45:15;;;;;;;2.83;1.83;;;20.90;32.80;;;;;;5094377;28;20024;-56
2021/04/09 12:47:41;;;;;;;2.55;1.23;;;20.90;32.40;;;;;;5093762;28;20074;-54
2021/04/09 12:50:07;;;;;;;4.90;1.05;;;20.90;32.10;;;;;;5093200;28;20040;-51
2021/04/09 12:52:33;;;;;;;2.83;1.00;;;20.90;31.70;;;;;;5093989;28;20060;-52